Time;durP1;ratioP1;P1;durP2;ratioP2;P2;SDS_P1;SDS_P2;PMS_P1;PMS_P2;Temp;Humidity;BMP_temperature;BMP_pressure;BME280_temperature;BME280_humidity;BME280_pressure;Samples;Min_cycle;Max_cycle;Signal;HPM_P1;HPM_P2
2021/11/01 00:03:42;;;;;;;;;;;;;;;;;;4;12471428;110183966;-88
2021/11/01 00:07:58;;;;;;;;;0.00;0.00;;;;;;;;519810;27;156002060;-89
2021/11/01 00:10:23;;;;;;;;;0.00;0.00;;;;;;;;2967445;27;47962968;-88
2021/11/01 00:12:49;;;;;;;;;0.00;0.00;;;;;;;;5099185;27;29908;-90
2021/11/01 00:15:14;;;;;;;;;0.00;0.00;;;;;;;;5104805;27;29983;-90
2021/11/01 00:17:40;;;;;;;;;0.00;0.00;;;;;;;;5093775;28;29919;-89
2021/11/01 00:20:07;;;;;;;;;0.00;0.00;;;;;;;;5095123;27;30078;-89
2021/11/01 00:22:33;;;;;;;;;0.00;0.00;;;;;;;;5094101;27;29843;-90
2021/11/01 00:25:16;;;;;;;;;0.00;0.00;;;;;;;;2730437;27;26974586;-89
2021/11/01 00:27:41;;;;;;;;;0.00;0.00;;;;;;;;4415094;27;19343345;-86
2021/11/01 00:30:09;;;;;;;;;0.00;0.00;;;;;;;;5096143;27;29399;-87
2021/11/01 00:32:34;;;;;;;;;0.00;0.00;;;;;;;;5094371;27;29509;-87
2021/11/01 00:35:00;;;;;;;;;0.00;0.00;;;;;;;;5095686;27;29727;-85
2021/11/01 00:37:27;;;;;;;;;0.00;0.00;;;;;;;;5095558;27;29473;-85
2021/11/01 00:39:54;;;;;;;;;0.00;0.00;;;;;;;;5106669;27;29474;-87
2021/11/01 00:42:20;;;;;;;;;0.00;0.00;;;;;;;;5097794;27;29471;-87
2021/11/01 00:44:45;;;;;;;;;0.00;0.00;;;;;;;;5095478;27;29315;-88
2021/11/01 00:47:12;;;;;;;;;0.00;0.00;;;;;;;;5095452;27;29476;-88
2021/11/01 00:49:38;;;;;;;;;0.00;0.00;;;;;;;;5095018;27;29459;-88
2021/11/01 00:52:04;;;;;;;;;0.00;0.00;;;;;;;;5094864;27;29524;-87
2021/11/01 00:54:29;;;;;;;;;0.00;0.00;;;;;;;;5095687;28;29441;-88
2021/11/01 00:56:55;;;;;;;;;0.00;0.00;;;;;;;;5093731;28;30994;-87
2021/11/01 00:59:21;;;;;;;;;0.00;0.00;;;;;;;;5095467;27;29445;-88
2021/11/01 01:02:36;;;;;;;;;0.00;0.00;;;;;;;;4744629;27;59781208;-87
2021/11/01 01:05:03;;;;;;;;;0.00;0.00;;;;;;;;3628208;27;25211095;-87
2021/11/01 01:07:29;;;;;;;;;0.00;0.00;;;;;;;;5077714;27;503912;-87
2021/11/01 01:09:54;;;;;;;;;0.00;0.00;;;;;;;;5093520;27;29918;-87
2021/11/01 01:12:20;;;;;;;;;0.00;0.00;;;;;;;;5103295;27;29750;-86
2021/11/01 01:14:52;;;;;;;;;0.00;0.00;;;;;;;;5094796;27;29346;-86
2021/11/01 01:17:20;;;;;;;;;0.00;0.00;;;;;;;;5093468;28;29460;-87
2021/11/01 01:20:09;;;;;;;;;0.00;0.00;;;;;;;;4124573;27;6954461;-86
2021/11/01 01:22:31;;;;;;;;;0.00;0.00;;;;;;;;4808932;28;2595664;-88
2021/11/01 01:25:03;;;;;;;;;0.00;0.00;;;;;;;;5094359;27;29450;-87
2021/11/01 01:27:30;;;;;;;;;0.00;0.00;;;;;;;;5094407;27;29990;-87
2021/11/01 01:29:55;;;;;;;;;0.00;0.00;;;;;;;;5093661;28;29850;-87
2021/11/01 01:32:21;;;;;;;;;0.00;0.00;;;;;;;;5096044;27;30487;-87
2021/11/01 01:34:46;;;;;;;;;0.00;0.00;;;;;;;;5101826;27;29670;-87
2021/11/01 01:37:12;;;;;;;;;0.00;0.00;;;;;;;;5094470;27;29487;-87
2021/11/01 01:39:37;;;;;;;;;0.00;0.00;;;;;;;;5095153;27;29338;-88
2021/11/01 01:42:03;;;;;;;;;0.00;0.00;;;;;;;;5094497;27;29344;-87
2021/11/01 01:44:28;;;;;;;;;0.00;0.00;;;;;;;;5092873;28;29757;-88
2021/11/01 01:46:53;;;;;;;;;0.00;0.00;;;;;;;;5102548;27;29441;-89
2021/11/01 01:49:19;;;;;;;;;0.00;0.00;;;;;;;;5110581;27;29480;-88
2021/11/01 01:51:44;;;;;;;;;0.00;0.00;;;;;;;;5092803;28;29664;-88
2021/11/01 01:54:10;;;;;;;;;0.00;0.00;;;;;;;;5094759;27;29427;-87
2021/11/01 01:56:35;;;;;;;;;0.00;0.00;;;;;;;;5094198;27;29399;-89
2021/11/01 01:59:04;;;;;;;;;0.00;0.00;;;;;;;;5104080;27;29335;-90
2021/11/01 02:01:30;;;;;;;;;0.00;0.00;;;;;;;;5114978;27;29402;-89
2021/11/01 02:03:55;;;;;;;;;0.00;0.00;;;;;;;;5113627;27;29697;-89
2021/11/01 02:06:27;;;;;;;;;0.00;0.00;;;;;;;;5104461;27;29464;-88
2021/11/01 02:09:06;;;;;;;;;0.00;0.00;;;;;;;;5094824;27;29402;-88
2021/11/01 02:11:37;;;;;;;;;0.00;0.00;;;;;;;;5093960;27;29434;-88
2021/11/01 02:14:05;;;;;;;;;0.00;0.00;;;;;;;;5094636;28;29505;-88
2021/11/01 02:16:32;;;;;;;;;0.00;0.00;;;;;;;;5094266;27;29366;-89
2021/11/01 02:18:58;;;;;;;;;0.00;0.00;;;;;;;;5098290;27;29341;-88
2021/11/01 02:21:37;;;;;;;;;0.00;0.00;;;;;;;;5107353;27;29470;-86
2021/11/01 02:24:04;;;;;;;;;0.00;0.00;;;;;;;;5081216;28;29409;-91
2021/11/01 02:26:32;;;;;;;;;0.00;0.00;;;;;;;;5101886;27;29673;-90
2021/11/01 02:28:58;;;;;;;;;0.00;0.00;;;;;;;;5101346;27;29660;-91
2021/11/01 02:31:23;;;;;;;;;0.00;0.00;;;;;;;;5104781;27;31229;-90
2021/11/01 02:33:49;;;;;;;;;0.00;0.00;;;;;;;;5097486;27;29426;-89
2021/11/01 02:36:15;;;;;;;;;0.00;0.00;;;;;;;;5097757;27;29419;-89
2021/11/01 02:38:41;;;;;;;;;0.00;0.00;;;;;;;;5096476;27;29695;-88
2021/11/01 02:41:17;;;;;;;;;0.00;0.00;;;;;;;;5097440;27;29509;-88
2021/11/01 02:43:45;;;;;;;;;0.00;0.00;;;;;;;;5097350;27;29438;-88
2021/11/01 02:46:10;;;;;;;;;0.00;0.00;;;;;;;;5096589;27;29539;-89
2021/11/01 02:48:35;;;;;;;;;0.00;0.00;;;;;;;;2264803;27;42154836;-88
2021/11/01 02:51:01;;;;;;;;;0.00;0.00;;;;;;;;5106986;27;30243;-89
2021/11/01 02:53:27;;;;;;;;;0.00;0.00;;;;;;;;5096194;27;29473;-89
2021/11/01 02:55:53;;;;;;;;;0.00;0.00;;;;;;;;5097208;27;29535;-88
2021/11/01 02:58:18;;;;;;;;;0.00;0.00;;;;;;;;5097566;27;29355;-89
2021/11/01 03:00:43;;;;;;;;;0.00;0.00;;;;;;;;5085485;27;345755;-87
2021/11/01 03:03:09;;;;;;;;;0.00;0.00;;;;;;;;5096517;27;29972;-87
2021/11/01 03:05:36;;;;;;;;;0.00;0.00;;;;;;;;5096949;27;29871;-87
2021/11/01 03:08:02;;;;;;;;;0.00;0.00;;;;;;;;5096068;27;29570;-86
2021/11/01 03:10:28;;;;;;;;;0.00;0.00;;;;;;;;5097254;27;29433;-87
2021/11/01 03:12:54;;;;;;;;;0.00;0.00;;;;;;;;5096990;27;29489;-86
2021/11/01 03:15:23;;;;;;;;;0.00;0.00;;;;;;;;5096921;27;29315;-87
2021/11/01 03:18:06;;;;;;;;;0.00;0.00;;;;;;;;5096927;27;29519;-87
2021/11/01 03:20:35;;;;;;;;;0.00;0.00;;;;;;;;5095616;28;32159;-87
2021/11/01 03:23:06;;;;;;;;;0.00;0.00;;;;;;;;5096956;27;29647;-87
2021/11/01 03:25:34;;;;;;;;;0.00;0.00;;;;;;;;5096561;27;29522;-86
2021/11/01 03:28:01;;;;;;;;;0.00;0.00;;;;;;;;5097278;27;29480;-86
2021/11/01 03:30:27;;;;;;;;;0.00;0.00;;;;;;;;5096301;27;30898;-86
2021/11/01 03:32:52;;;;;;;;;0.00;0.00;;;;;;;;5094362;27;29579;-87
2021/11/01 03:35:18;;;;;;;;;0.00;0.00;;;;;;;;5096473;27;29475;-86
2021/11/01 03:37:45;;;;;;;;;0.00;0.00;;;;;;;;5096484;27;29394;-87
2021/11/01 03:40:15;;;;;;;;;0.00;0.00;;;;;;;;5094729;28;30953;-86
2021/11/01 03:42:41;;;;;;;;;0.00;0.00;;;;;;;;5094366;27;30257;-86
2021/11/01 03:45:09;;;;;;;;;0.00;0.00;;;;;;;;5096623;27;28868;-87
2021/11/01 03:47:38;;;;;;;;;0.00;0.00;;;;;;;;5083250;28;29310;-86
2021/11/01 03:50:14;;;;;;;;;0.00;0.00;;;;;;;;5096486;27;29505;-86
2021/11/01 03:52:42;;;;;;;;;0.00;0.00;;;;;;;;5096480;27;29448;-86
2021/11/01 03:55:07;;;;;;;;;0.00;0.00;;;;;;;;5096484;27;29584;-86
2021/11/01 03:57:33;;;;;;;;;0.00;0.00;;;;;;;;5096507;27;29397;-86
2021/11/01 03:59:58;;;;;;;;;0.00;0.00;;;;;;;;5095071;28;30772;-85
2021/11/01 04:02:25;;;;;;;;;0.00;0.00;;;;;;;;5094789;28;29989;-85
2021/11/01 04:04:52;;;;;;;;;0.00;0.00;;;;;;;;5096500;27;29350;-86
2021/11/01 04:07:18;;;;;;;;;0.00;0.00;;;;;;;;5094866;27;29350;-86
2021/11/01 04:09:43;;;;;;;;;0.00;0.00;;;;;;;;5095976;27;29342;-86
2021/11/01 04:12:10;;;;;;;;;0.00;0.00;;;;;;;;5095954;27;29426;-85
2021/11/01 04:14:59;;;;;;;;;0.00;0.00;;;;;;;;5096231;27;29575;-86
2021/11/01 04:20:11;;;;;;;;;0.00;0.00;;;;;;;;5088175;28;29357;-86
2021/11/01 04:22:37;;;;;;;;;0.00;0.00;;;;;;;;5095999;27;29358;-87
2021/11/01 04:25:03;;;;;;;;;0.00;0.00;;;;;;;;5094537;27;29417;-87
2021/11/01 04:27:28;;;;;;;;;0.00;0.00;;;;;;;;5096243;27;29613;-87
2021/11/01 04:29:54;;;;;;;;;0.00;0.00;;;;;;;;5095899;27;29601;-86
2021/11/01 04:32:33;;;;;;;;;0.00;0.00;;;;;;;;5085794;27;137502;-86
2021/11/01 04:35:10;;;;;;;;;0.00;0.00;;;;;;;;4411268;27;6256996;-86
2021/11/01 04:37:36;;;;;;;;;0.00;0.00;;;;;;;;5094876;27;32637;-86
2021/11/01 04:53:28;;;;;;;;;0.00;0.00;;;;;;;;5084798;28;29637;-86
2021/11/01 04:55:54;;;;;;;;;0.00;0.00;;;;;;;;5095676;27;29395;-87
2021/11/01 04:58:20;;;;;;;;;0.00;0.00;;;;;;;;5096051;27;29470;-87
2021/11/01 05:00:46;;;;;;;;;0.00;0.00;;;;;;;;5095365;27;29440;-86
2021/11/01 05:05:46;;;;;;;;;0.00;0.00;;;;;;;;5095234;27;29354;-86
2021/11/01 05:08:12;;;;;;;;;0.00;0.00;;;;;;;;5092836;27;29661;-86
2021/11/01 05:10:40;;;;;;;;;0.00;0.00;;;;;;;;5094693;27;29588;-86
2021/11/01 05:13:09;;;;;;;;;0.00;0.00;;;;;;;;5095600;27;29349;-86
2021/11/01 05:15:40;;;;;;;;;0.00;0.00;;;;;;;;5093723;27;29626;-86
2021/11/01 05:20:44;;;;;;;;;0.00;0.00;;;;;;;;5090817;28;29256;-85
2021/11/01 05:26:21;;;;;;;;;0.00;0.00;;;;;;;;5095387;27;29555;-85
2021/11/01 05:28:42;;;;;;;;;0.00;0.00;;;;;;;;5076313;27;29369;-86
2021/11/01 05:31:15;;;;;;;;;0.00;0.00;;;;;;;;5090942;27;29536;-86
2021/11/01 05:36:24;;;;;;;;;0.00;0.00;;;;;;;;5090910;28;29570;-86
2021/11/01 05:38:49;;;;;;;;;0.00;0.00;;;;;;;;5094484;27;29371;-86
2021/11/01 05:41:16;;;;;;;;;0.00;0.00;;;;;;;;5094715;27;29684;-86
2021/11/01 05:43:41;;;;;;;;;0.00;0.00;;;;;;;;5092897;27;30022;-85
2021/11/01 05:46:06;;;;;;;;;0.00;0.00;;;;;;;;5094970;27;29414;-85
2021/11/01 05:48:32;;;;;;;;;0.00;0.00;;;;;;;;5094736;27;29371;-86
2021/11/01 05:50:58;;;;;;;;;0.00;0.00;;;;;;;;5094525;27;29357;-85
2021/11/01 05:53:27;;;;;;;;;0.00;0.00;;;;;;;;5088497;27;29799;-86
2021/11/01 05:56:13;;;;;;;;;0.00;0.00;;;;;;;;5094917;27;29354;-86
2021/11/01 05:58:51;;;;;;;;;0.00;0.00;;;;;;;;5093310;27;29536;-86
2021/11/01 06:03:55;;;;;;;;;0.00;0.00;;;;;;;;5094000;27;29444;-86
2021/11/01 06:09:19;;;;;;;;;0.00;0.00;;;;;;;;5098263;27;29858;-86
2021/11/01 06:14:29;;;;;;;;;0.00;0.00;;;;;;;;5098133;27;29449;-85
2021/11/01 06:16:55;;;;;;;;;0.00;0.00;;;;;;;;5098313;27;29478;-86
2021/11/01 06:19:20;;;;;;;;;0.00;0.00;;;;;;;;5098001;27;29429;-86
2021/11/01 06:21:48;;;;;;;;;0.00;0.00;;;;;;;;5097665;27;30184;-86
2021/11/01 06:27:19;;;;;;;;;0.00;0.00;;;;;;;;5054674;28;29792;-87
2021/11/01 06:29:55;;;;;;;;;0.00;0.00;;;;;;;;5054608;28;29404;-87
2021/11/01 06:43:02;;;;;;;;;0.00;0.00;;;;;;;;5097349;27;30190;-86
2021/11/01 07:14:55;;;;;;;;;0.00;0.00;;;;;;;;2;261079281;261079281;-87
2021/11/01 09:02:37;;;;;;;;;0.00;0.00;;;;;;;;5088148;28;29367;-84
2021/11/01 09:36:24;;;;;;;;;0.00;0.00;;;;;;;;5094474;28;29402;-86
2021/11/01 09:41:18;;;;;;;;;0.00;0.00;;;;;;;;5103225;27;29492;-86
2021/11/01 09:43:45;;;;;;;;;0.00;0.00;;;;;;;;5095638;27;29644;-81
2021/11/01 09:46:10;;;;;;;;;0.00;0.00;;;;;;;;5094112;27;29566;-84
2021/11/01 09:48:40;;;;;;;;;0.00;0.00;;;;;;;;5094518;27;29311;-86
2021/11/01 09:51:06;;;;;;;;;0.00;0.00;;;;;;;;5094386;27;29398;-84
2021/11/01 09:53:44;;;;;;;;;0.00;0.00;;;;;;;;5084433;27;29518;-79
2021/11/01 10:01:32;;;;;;;;;0.00;0.00;;;;;;;;5082404;27;29367;-80
2021/11/01 10:03:58;;;;;;;;;0.00;0.00;;;;;;;;5094586;28;29914;-84
2021/11/01 10:06:26;;;;;;;;;0.00;0.00;;;;;;;;5093742;27;30360;-79
2021/11/01 10:08:53;;;;;;;;;0.00;0.00;;;;;;;;5094953;27;29552;-81
2021/11/01 10:11:20;;;;;;;;;0.00;0.00;;;;;;;;5092168;27;29513;-80
2021/11/01 10:13:53;;;;;;;;;0.00;0.00;;;;;;;;5094668;27;29510;-78
2021/11/01 10:19:12;;;;;;;;;0.00;0.00;;;;;;;;5094997;27;29657;-82
2021/11/01 10:21:48;;;;;;;;;0.00;0.00;;;;;;;;5091544;28;29504;-80
2021/11/01 10:24:21;;;;;;;;;0.00;0.00;;;;;;;;5081928;27;29604;-78
2021/11/01 10:26:46;;;;;;;;;0.00;0.00;;;;;;;;5082108;27;29645;-82
2021/11/01 10:29:13;;;;;;;;;0.00;0.00;;;;;;;;5098768;27;29615;-82
2021/11/01 10:31:45;;;;;;;;;0.00;0.00;;;;;;;;5088571;27;29489;-79
2021/11/01 10:34:12;;;;;;;;;0.00;0.00;;;;;;;;5088289;28;29609;-82
2021/11/01 10:36:40;;;;;;;;;0.00;0.00;;;;;;;;5094377;27;29844;-80
2021/11/01 10:39:10;;;;;;;;;0.00;0.00;;;;;;;;5092909;28;30461;-80
2021/11/01 10:41:46;;;;;;;;;0.00;0.00;;;;;;;;5090741;27;29395;-81
2021/11/01 10:44:37;;;;;;;;;0.00;0.00;;;;;;;;5120841;27;29516;-79
2021/11/01 11:14:29;;;;;;;;;0.00;0.00;;;;;;;;5096994;27;29381;-80
2021/11/01 11:20:07;;;;;;;;;0.00;0.00;;;;;;;;5096780;28;29398;-83
2021/11/01 11:49:28;;;;;;;;;0.00;0.00;;;;;;;;5095176;27;29380;-81
2021/11/01 11:51:57;;;;;;;;;0.00;0.00;;;;;;;;5096151;27;29541;-78
2021/11/01 11:54:32;;;;;;;;;0.00;0.00;;;;;;;;5096369;27;29591;-78
2021/11/01 11:57:03;;;;;;;;;0.00;0.00;;;;;;;;5096474;27;29339;-79
2021/11/01 11:59:33;;;;;;;;;0.00;0.00;;;;;;;;5096553;27;29411;-78
2021/11/01 12:02:04;;;;;;;;;0.00;0.00;;;;;;;;5095792;27;29610;-78
2021/11/01 12:04:34;;;;;;;;;0.00;0.00;;;;;;;;5096368;27;29257;-78
2021/11/01 12:07:02;;;;;;;;;0.00;0.00;;;;;;;;5096675;27;29472;-82
2021/11/01 12:09:43;;;;;;;;;0.00;0.00;;;;;;;;5094953;27;29686;-78
2021/11/01 12:17:16;;;;;;;;;0.00;0.00;;;;;;;;5095590;27;29345;-81
2021/11/01 12:19:41;;;;;;;;;0.00;0.00;;;;;;;;5095340;27;29404;-80
2021/11/01 12:22:09;;;;;;;;;0.00;0.00;;;;;;;;5093253;28;29626;-81
2021/11/01 12:24:35;;;;;;;;;0.00;0.00;;;;;;;;5098903;27;33227;-80
2021/11/01 12:27:05;;;;;;;;;0.00;0.00;;;;;;;;5095310;27;29500;-80
2021/11/01 12:29:32;;;;;;;;;0.00;0.00;;;;;;;;4973135;27;3172303;-80
2021/11/01 12:32:06;;;;;;;;;0.00;0.00;;;;;;;;4918011;27;4547220;-81
2021/11/01 12:34:35;;;;;;;;;0.00;0.00;;;;;;;;5095598;27;29413;-81
2021/11/01 12:37:06;;;;;;;;;0.00;0.00;;;;;;;;5094246;27;29374;-81
2021/11/01 12:39:55;;;;;;;;;0.00;0.00;;;;;;;;5095704;27;30070;-80
2021/11/01 12:42:36;;;;;;;;;0.00;0.00;;;;;;;;2984456;27;59877141;-78
2021/11/01 12:58:30;;;;;;;;;0.00;0.00;;;;;;;;5095327;27;29606;-82
2021/11/01 13:00:57;;;;;;;;;0.00;0.00;;;;;;;;5094471;27;29533;-79
2021/11/01 13:03:22;;;;;;;;;0.00;0.00;;;;;;;;5095024;27;29350;-79
2021/11/01 13:05:54;;;;;;;;;0.00;0.00;;;;;;;;5094563;27;29318;-79
2021/11/01 13:08:31;;;;;;;;;0.00;0.00;;;;;;;;5094738;27;29444;-78
2021/11/01 13:11:02;;;;;;;;;0.00;0.00;;;;;;;;5095324;27;29346;-79
2021/11/01 13:19:08;;;;;;;;;0.00;0.00;;;;;;;;5088062;28;29445;-80
2021/11/01 13:21:57;;;;;;;;;0.00;0.00;;;;;;;;5094925;27;29394;-80
2021/11/01 13:24:23;;;;;;;;;0.00;0.00;;;;;;;;5094127;27;29351;-80
2021/11/01 13:27:28;;;;;;;;;0.00;0.00;;;;;;;;5095437;27;29554;-81
2021/11/01 13:37:40;;;;;;;;;0.00;0.00;;;;;;;;5088607;27;29553;-83
2021/11/01 13:40:08;;;;;;;;;0.00;0.00;;;;;;;;5094397;28;29612;-82
2021/11/01 13:42:33;;;;;;;;;0.00;0.00;;;;;;;;5090251;27;29609;-83
2021/11/01 13:45:10;;;;;;;;;0.00;0.00;;;;;;;;5099109;27;29485;-82
2021/11/01 13:47:41;;;;;;;;;0.00;0.00;;;;;;;;5092345;28;29388;-84
2021/11/01 13:50:06;;;;;;;;;0.00;0.00;;;;;;;;5088732;27;29438;-82
2021/11/01 13:52:37;;;;;;;;;0.00;0.00;;;;;;;;5094477;27;29588;-84
2021/11/01 13:55:10;;;;;;;;;0.00;0.00;;;;;;;;5094455;27;29345;-83
2021/11/01 13:58:12;;;;;;;;;0.00;0.00;;;;;;;;5094921;28;29316;-85
2021/11/01 14:11:24;;;;;;;;;0.00;0.00;;;;;;;;5094464;28;29737;-82
2021/11/01 14:14:03;;;;;;;;;0.00;0.00;;;;;;;;5094254;27;29452;-82
2021/11/01 14:16:33;;;;;;;;;0.00;0.00;;;;;;;;5094385;28;29373;-82
2021/11/01 14:32:45;;;;;;;;;0.00;0.00;;;;;;;;5096871;27;30140;-87
2021/11/01 15:19:49;;;;;;;;;0.00;0.00;;;;;;;;2;253376927;253376927;-90
2021/11/01 16:31:51;;;;;;;;;0.00;0.00;;;;;;;;2;261077954;261077954;-85
2021/11/01 16:41:20;;;;;;;;;0.00;0.00;;;;;;;;2;288087403;288087403;-84
2021/11/01 16:49:36;;;;;;;;;0.00;0.00;;;;;;;;2;261078528;261078528;-85
2021/11/01 17:35:38;;;;;;;;;0.00;0.00;;;;;;;;2;288082243;288082243;-88
2021/11/01 18:51:04;;;;;;;;;0.00;0.00;;;;;;;;5104459;27;14266;-86
2021/11/01 18:53:35;;;;;;;;;0.00;0.00;;;;;;;;5118498;27;8803;-87
2021/11/01 18:56:03;;;;;;;;;0.00;0.00;;;;;;;;5117425;27;8803;-89
2021/11/01 18:58:31;;;;;;;;;0.00;0.00;;;;;;;;5118324;27;8852;-86
2021/11/01 19:00:57;;;;;;;;;0.00;0.00;;;;;;;;5127362;27;8820;-89
2021/11/01 19:03:25;;;;;;;;;0.00;0.00;;;;;;;;5125257;27;8779;-89
2021/11/01 19:17:35;;;;;;;;;0.00;0.00;;;;;;;;5118126;27;8791;-86
2021/11/01 20:06:47;;;;;;;;;0.00;0.00;;;;;;;;5116702;27;8871;-84
2021/11/01 20:12:01;;;;;;;;;0.00;0.00;;;;;;;;5117660;27;8791;-85
2021/11/01 21:26:04;;;;;;;;;0.00;0.00;;;;;;;;5086111;28;8762;-83
2021/11/01 21:28:29;;;;;;;;;0.00;0.00;;;;;;;;5091724;28;9553;-84
2021/11/01 21:30:54;;;;;;;;;0.00;0.00;;;;;;;;5099457;28;8856;-84
2021/11/01 21:33:22;;;;;;;;;0.00;0.00;;;;;;;;5094104;28;8916;-86
2021/11/01 21:35:52;;;;;;;;;0.00;0.00;;;;;;;;5090025;28;8770;-85
2021/11/01 21:38:18;;;;;;;;;0.00;0.00;;;;;;;;5095540;28;8814;-86
2021/11/01 21:40:45;;;;;;;;;0.00;0.00;;;;;;;;5090730;28;8793;-87
2021/11/01 21:43:11;;;;;;;;;0.00;0.00;;;;;;;;5114948;27;8850;-85
2021/11/01 21:45:40;;;;;;;;;0.00;0.00;;;;;;;;5094948;28;8818;-84
2021/11/01 21:48:07;;;;;;;;;0.00;0.00;;;;;;;;5127967;27;8848;-84
2021/11/01 21:50:35;;;;;;;;;0.00;0.00;;;;;;;;5095422;28;8786;-84
2021/11/01 21:53:05;;;;;;;;;0.00;0.00;;;;;;;;5094000;28;9636;-85
2021/11/01 21:55:33;;;;;;;;;0.00;0.00;;;;;;;;5094875;28;8774;-85
2021/11/01 21:58:05;;;;;;;;;0.00;0.00;;;;;;;;5095175;28;8797;-85
2021/11/01 22:32:43;;;;;;;;;0.00;0.00;;;;;;;;5091119;28;8833;-83
2021/11/01 22:40:37;;;;;;;;;0.00;0.00;;;;;;;;5093726;28;8781;-83
2021/11/01 22:43:19;;;;;;;;;0.00;0.00;;;;;;;;5095617;28;8789;-82
2021/11/01 22:46:05;;;;;;;;;0.00;0.00;;;;;;;;5084572;28;8833;-83
2021/11/01 22:56:57;;;;;;;;;0.00;0.00;;;;;;;;5098141;28;8744;-82
2021/11/01 22:59:21;;;;;;;;;0.00;0.00;;;;;;;;5096332;28;8862;-82
2021/11/01 23:01:48;;;;;;;;;0.00;0.00;;;;;;;;5091415;28;8809;-83
2021/11/01 23:07:07;;;;;;;;;0.00;0.00;;;;;;;;5103662;28;8787;-80
2021/11/01 23:31:32;;;;;;;;;0.00;0.00;;;;;;;;5085213;28;8875;-83
2021/11/01 23:33:58;;;;;;;;;0.00;0.00;;;;;;;;5097105;28;8903;-83
2021/11/01 23:36:24;;;;;;;;;0.00;0.00;;;;;;;;5097694;28;8797;-83
2021/11/01 23:38:50;;;;;;;;;0.00;0.00;;;;;;;;5111322;28;8803;-83
2021/11/01 23:41:16;;;;;;;;;0.00;0.00;;;;;;;;5097695;28;8779;-82
2021/11/01 23:43:41;;;;;;;;;0.00;0.00;;;;;;;;5097144;28;8817;-88
2021/11/01 23:46:07;;;;;;;;;0.00;0.00;;;;;;;;5113301;28;8809;-88
2021/11/01 23:48:32;;;;;;;;;0.00;0.00;;;;;;;;5097145;28;8824;-89
2021/11/01 23:50:59;;;;;;;;;0.00;0.00;;;;;;;;5110426;28;8811;-91
2021/11/01 23:55:58;;;;;;;;;0.00;0.00;;;;;;;;5097343;28;8790;-88
2021/11/01 23:58:24;;;;;;;;;0.00;0.00;;;;;;;;5097271;28;8825;-90
